sensor_id;sensor_type;location;lat;lon;timestamp;P1;durP1;ratioP1;P2;durP2;ratioP2
73264;SDS011;61493;51.008;14.088;2022-10-16T00:01:05;18.83;;;11.02;;
73264;SDS011;61493;51.008;14.088;2022-10-16T00:03:34;18.83;;;11.02;;
73264;SDS011;61493;51.008;14.088;2022-10-16T00:06:00;17.58;;;11.57;;
73264;SDS011;61493;51.008;14.088;2022-10-16T00:08:26;19.58;;;11.77;;
73264;SDS011;61493;51.008;14.088;2022-10-16T00:10:52;26.90;;;12.23;;
73264;SDS011;61493;51.008;14.088;2022-10-16T00:13:17;17.42;;;11.10;;
73264;SDS011;61493;51.008;14.088;2022-10-16T00:15:44;16.23;;;11.65;;
73264;SDS011;61493;51.008;14.088;2022-10-16T00:18:11;22.70;;;11.73;;
73264;SDS011;61493;51.008;14.088;2022-10-16T00:20:36;20.83;;;12.40;;
73264;SDS011;61493;51.008;14.088;2022-10-16T00:23:04;20.30;;;12.52;;
73264;SDS011;61493;51.008;14.088;2022-10-16T00:25:30;20.85;;;12.35;;
73264;SDS011;61493;51.008;14.088;2022-10-16T00:27:57;18.92;;;11.02;;
73264;SDS011;61493;51.008;14.088;2022-10-16T00:30:23;18.13;;;11.48;;
73264;SDS011;61493;51.008;14.088;2022-10-16T00:32:48;18.95;;;11.50;;
73264;SDS011;61493;51.008;14.088;2022-10-16T00:35:14;18.65;;;12.10;;
73264;SDS011;61493;51.008;14.088;2022-10-16T00:37:39;21.35;;;12.30;;
73264;SDS011;61493;51.008;14.088;2022-10-16T00:40:08;19.05;;;11.93;;
73264;SDS011;61493;51.008;14.088;2022-10-16T00:42:34;19.67;;;11.82;;
73264;SDS011;61493;51.008;14.088;2022-10-16T00:44:59;22.30;;;12.73;;
73264;SDS011;61493;51.008;14.088;2022-10-16T00:49:55;20.50;;;13.13;;
73264;SDS011;61493;51.008;14.088;2022-10-16T00:52:33;21.00;;;13.15;;
73264;SDS011;61493;51.008;14.088;2022-10-16T00:54:59;22.95;;;13.60;;
73264;SDS011;61493;51.008;14.088;2022-10-16T00:57:26;23.40;;;14.38;;
73264;SDS011;61493;51.008;14.088;2022-10-16T00:59:52;24.58;;;14.57;;
73264;SDS011;61493;51.008;14.088;2022-10-16T01:02:18;23.27;;;13.60;;
73264;SDS011;61493;51.008;14.088;2022-10-16T01:04:50;22.80;;;13.93;;
73264;SDS011;61493;51.008;14.088;2022-10-16T01:12:40;23.55;;;14.85;;
73264;SDS011;61493;51.008;14.088;2022-10-16T01:15:15;24.98;;;14.63;;
73264;SDS011;61493;51.008;14.088;2022-10-16T01:17:57;25.33;;;15.02;;
73264;SDS011;61493;51.008;14.088;2022-10-16T01:20:54;23.73;;;15.23;;
73264;SDS011;61493;51.008;14.088;2022-10-16T01:29:08;28.27;;;14.65;;
73264;SDS011;61493;51.008;14.088;2022-10-16T01:31:47;24.98;;;14.57;;
73264;SDS011;61493;51.008;14.088;2022-10-16T01:34:18;27.00;;;14.48;;
73264;SDS011;61493;51.008;14.088;2022-10-16T01:36:50;26.92;;;15.35;;
73264;SDS011;61493;51.008;14.088;2022-10-16T01:39:21;24.27;;;14.32;;
73264;SDS011;61493;51.008;14.088;2022-10-16T01:41:52;24.80;;;15.38;;
73264;SDS011;61493;51.008;14.088;2022-10-16T01:44:28;24.25;;;14.70;;
73264;SDS011;61493;51.008;14.088;2022-10-16T01:46:56;24.55;;;13.52;;
73264;SDS011;61493;51.008;14.088;2022-10-16T01:49:23;25.25;;;14.38;;
73264;SDS011;61493;51.008;14.088;2022-10-16T01:51:52;21.98;;;13.40;;
73264;SDS011;61493;51.008;14.088;2022-10-16T01:54:21;18.58;;;12.43;;
73264;SDS011;61493;51.008;14.088;2022-10-16T01:56:48;21.95;;;12.38;;
73264;SDS011;61493;51.008;14.088;2022-10-16T01:59:16;20.90;;;12.43;;
73264;SDS011;61493;51.008;14.088;2022-10-16T02:01:46;20.13;;;12.20;;
73264;SDS011;61493;51.008;14.088;2022-10-16T02:04:18;21.38;;;13.40;;
73264;SDS011;61493;51.008;14.088;2022-10-16T02:06:57;20.08;;;12.68;;
73264;SDS011;61493;51.008;14.088;2022-10-16T02:09:22;20.58;;;11.95;;
73264;SDS011;61493;51.008;14.088;2022-10-16T02:11:48;20.05;;;12.23;;
73264;SDS011;61493;51.008;14.088;2022-10-16T02:14:17;19.73;;;12.50;;
73264;SDS011;61493;51.008;14.088;2022-10-16T02:16:44;19.88;;;12.10;;
73264;SDS011;61493;51.008;14.088;2022-10-16T02:19:11;17.52;;;11.55;;
73264;SDS011;61493;51.008;14.088;2022-10-16T02:21:41;19.88;;;11.73;;
73264;SDS011;61493;51.008;14.088;2022-10-16T02:26:41;20.20;;;12.55;;
73264;SDS011;61493;51.008;14.088;2022-10-16T02:29:20;18.15;;;11.82;;
73264;SDS011;61493;51.008;14.088;2022-10-16T02:31:50;20.35;;;11.07;;
73264;SDS011;61493;51.008;14.088;2022-10-16T02:34:20;18.10;;;10.88;;
73264;SDS011;61493;51.008;14.088;2022-10-16T02:36:47;19.02;;;11.90;;
73264;SDS011;61493;51.008;14.088;2022-10-16T02:39:14;17.65;;;11.02;;
73264;SDS011;61493;51.008;14.088;2022-10-16T02:41:41;19.85;;;12.43;;
73264;SDS011;61493;51.008;14.088;2022-10-16T02:44:06;18.13;;;11.55;;
73264;SDS011;61493;51.008;14.088;2022-10-16T02:46:31;16.50;;;11.07;;
73264;SDS011;61493;51.008;14.088;2022-10-16T02:48:57;20.17;;;11.20;;
73264;SDS011;61493;51.008;14.088;2022-10-16T02:51:22;16.55;;;10.55;;
73264;SDS011;61493;51.008;14.088;2022-10-16T02:53:47;20.17;;;10.48;;
73264;SDS011;61493;51.008;14.088;2022-10-16T02:56:13;18.38;;;10.50;;
73264;SDS011;61493;51.008;14.088;2022-10-16T02:58:38;18.65;;;11.40;;
73264;SDS011;61493;51.008;14.088;2022-10-16T03:01:03;17.70;;;11.40;;
73264;SDS011;61493;51.008;14.088;2022-10-16T03:03:29;16.65;;;12.15;;
73264;SDS011;61493;51.008;14.088;2022-10-16T03:05:54;19.35;;;12.23;;
73264;SDS011;61493;51.008;14.088;2022-10-16T03:08:20;19.05;;;12.35;;
73264;SDS011;61493;51.008;14.088;2022-10-16T03:10:48;18.85;;;11.77;;
73264;SDS011;61493;51.008;14.088;2022-10-16T03:13:14;20.73;;;12.52;;
73264;SDS011;61493;51.008;14.088;2022-10-16T03:15:39;21.40;;;11.82;;
73264;SDS011;61493;51.008;14.088;2022-10-16T03:18:05;21.00;;;12.75;;
73264;SDS011;61493;51.008;14.088;2022-10-16T03:20:30;18.20;;;10.82;;
73264;SDS011;61493;51.008;14.088;2022-10-16T03:22:55;17.75;;;10.88;;
73264;SDS011;61493;51.008;14.088;2022-10-16T03:25:21;17.75;;;11.70;;
73264;SDS011;61493;51.008;14.088;2022-10-16T03:27:46;17.40;;;10.82;;
73264;SDS011;61493;51.008;14.088;2022-10-16T03:30:12;16.52;;;10.35;;
73264;SDS011;61493;51.008;14.088;2022-10-16T03:32:40;17.08;;;11.10;;
73264;SDS011;61493;51.008;14.088;2022-10-16T03:35:08;16.25;;;10.98;;
73264;SDS011;61493;51.008;14.088;2022-10-16T03:37:34;18.17;;;11.05;;
73264;SDS011;61493;51.008;14.088;2022-10-16T03:39:59;17.55;;;11.38;;
73264;SDS011;61493;51.008;14.088;2022-10-16T03:42:28;16.90;;;10.55;;
73264;SDS011;61493;51.008;14.088;2022-10-16T03:44:54;17.15;;;10.73;;
73264;SDS011;61493;51.008;14.088;2022-10-16T03:47:19;15.80;;;10.20;;
73264;SDS011;61493;51.008;14.088;2022-10-16T03:49:46;18.25;;;11.20;;
73264;SDS011;61493;51.008;14.088;2022-10-16T03:52:13;18.42;;;11.40;;
73264;SDS011;61493;51.008;14.088;2022-10-16T03:54:38;16.05;;;10.88;;
73264;SDS011;61493;51.008;14.088;2022-10-16T03:57:04;17.85;;;10.63;;
73264;SDS011;61493;51.008;14.088;2022-10-16T03:59:29;17.65;;;9.60;;
73264;SDS011;61493;51.008;14.088;2022-10-16T04:01:54;14.38;;;10.57;;
73264;SDS011;61493;51.008;14.088;2022-10-16T04:04:19;16.02;;;9.80;;
73264;SDS011;61493;51.008;14.088;2022-10-16T04:06:45;16.35;;;10.55;;
73264;SDS011;61493;51.008;14.088;2022-10-16T04:09:10;15.27;;;9.82;;
73264;SDS011;61493;51.008;14.088;2022-10-16T04:11:38;15.00;;;10.20;;
73264;SDS011;61493;51.008;14.088;2022-10-16T04:14:04;15.48;;;10.98;;
73264;SDS011;61493;51.008;14.088;2022-10-16T04:16:29;15.73;;;10.77;;
73264;SDS011;61493;51.008;14.088;2022-10-16T04:18:55;16.15;;;10.15;;
73264;SDS011;61493;51.008;14.088;2022-10-16T04:21:20;13.85;;;9.02;;
73264;SDS011;61493;51.008;14.088;2022-10-16T04:23:45;15.80;;;9.18;;
73264;SDS011;61493;51.008;14.088;2022-10-16T04:26:11;15.15;;;9.32;;
73264;SDS011;61493;51.008;14.088;2022-10-16T04:28:36;17.45;;;10.27;;
73264;SDS011;61493;51.008;14.088;2022-10-16T04:31:05;14.35;;;9.52;;
73264;SDS011;61493;51.008;14.088;2022-10-16T04:33:31;16.15;;;10.30;;
73264;SDS011;61493;51.008;14.088;2022-10-16T04:36:00;17.02;;;10.38;;
73264;SDS011;61493;51.008;14.088;2022-10-16T04:38:26;14.07;;;8.93;;
73264;SDS011;61493;51.008;14.088;2022-10-16T04:40:52;18.17;;;10.75;;
73264;SDS011;61493;51.008;14.088;2022-10-16T04:43:17;17.75;;;11.23;;
73264;SDS011;61493;51.008;14.088;2022-10-16T04:45:45;17.70;;;11.10;;
73264;SDS011;61493;51.008;14.088;2022-10-16T04:48:11;18.27;;;10.90;;
73264;SDS011;61493;51.008;14.088;2022-10-16T04:50:36;23.35;;;11.48;;
73264;SDS011;61493;51.008;14.088;2022-10-16T04:53:05;19.38;;;11.13;;
73264;SDS011;61493;51.008;14.088;2022-10-16T04:55:31;18.38;;;10.52;;
73264;SDS011;61493;51.008;14.088;2022-10-16T04:57:57;19.02;;;11.88;;
73264;SDS011;61493;51.008;14.088;2022-10-16T05:00:22;35.33;;;13.02;;
73264;SDS011;61493;51.008;14.088;2022-10-16T05:02:49;20.13;;;12.50;;
73264;SDS011;61493;51.008;14.088;2022-10-16T05:05:15;20.17;;;12.18;;
73264;SDS011;61493;51.008;14.088;2022-10-16T05:07:40;21.05;;;12.32;;
73264;SDS011;61493;51.008;14.088;2022-10-16T05:10:06;23.17;;;12.23;;
73264;SDS011;61493;51.008;14.088;2022-10-16T05:12:34;19.55;;;12.55;;
73264;SDS011;61493;51.008;14.088;2022-10-16T05:15:00;22.50;;;12.52;;
73264;SDS011;61493;51.008;14.088;2022-10-16T05:17:25;19.75;;;12.32;;
73264;SDS011;61493;51.008;14.088;2022-10-16T05:19:51;20.83;;;12.23;;
73264;SDS011;61493;51.008;14.088;2022-10-16T05:22:18;18.75;;;11.68;;
73264;SDS011;61493;51.008;14.088;2022-10-16T05:24:46;16.00;;;10.75;;
73264;SDS011;61493;51.008;14.088;2022-10-16T05:27:11;15.65;;;10.55;;
73264;SDS011;61493;51.008;14.088;2022-10-16T05:29:43;19.17;;;10.82;;
73264;SDS011;61493;51.008;14.088;2022-10-16T05:32:13;16.55;;;9.60;;
73264;SDS011;61493;51.008;14.088;2022-10-16T05:34:39;13.80;;;9.98;;
73264;SDS011;61493;51.008;14.088;2022-10-16T05:37:04;20.40;;;9.95;;
73264;SDS011;61493;51.008;14.088;2022-10-16T05:39:29;18.67;;;9.55;;
73264;SDS011;61493;51.008;14.088;2022-10-16T05:41:55;12.13;;;8.57;;
73264;SDS011;61493;51.008;14.088;2022-10-16T05:44:20;12.73;;;9.07;;
73264;SDS011;61493;51.008;14.088;2022-10-16T05:46:46;13.30;;;9.38;;
73264;SDS011;61493;51.008;14.088;2022-10-16T05:49:12;12.32;;;8.07;;
73264;SDS011;61493;51.008;14.088;2022-10-16T05:51:40;11.35;;;8.00;;
73264;SDS011;61493;51.008;14.088;2022-10-16T05:54:06;11.25;;;7.65;;
73264;SDS011;61493;51.008;14.088;2022-10-16T05:56:34;10.15;;;7.55;;
73264;SDS011;61493;51.008;14.088;2022-10-16T05:58:59;11.38;;;7.28;;
73264;SDS011;61493;51.008;14.088;2022-10-16T06:01:25;10.05;;;6.82;;
73264;SDS011;61493;51.008;14.088;2022-10-16T06:03:51;10.32;;;7.78;;
73264;SDS011;61493;51.008;14.088;2022-10-16T06:06:21;9.88;;;7.93;;
73264;SDS011;61493;51.008;14.088;2022-10-16T06:08:49;12.38;;;7.25;;
73264;SDS011;61493;51.008;14.088;2022-10-16T06:11:16;9.20;;;7.00;;
73264;SDS011;61493;51.008;14.088;2022-10-16T06:13:43;10.43;;;7.47;;
73264;SDS011;61493;51.008;14.088;2022-10-16T06:16:10;13.90;;;7.75;;
73264;SDS011;61493;51.008;14.088;2022-10-16T06:18:36;9.63;;;6.65;;
73264;SDS011;61493;51.008;14.088;2022-10-16T06:21:06;10.05;;;6.72;;
73264;SDS011;61493;51.008;14.088;2022-10-16T06:23:33;10.75;;;6.88;;
73264;SDS011;61493;51.008;14.088;2022-10-16T06:26:05;9.13;;;7.00;;
73264;SDS011;61493;51.008;14.088;2022-10-16T06:28:34;12.15;;;7.78;;
73264;SDS011;61493;51.008;14.088;2022-10-16T06:31:00;11.23;;;7.68;;
73264;SDS011;61493;51.008;14.088;2022-10-16T06:33:27;11.20;;;7.13;;
73264;SDS011;61493;51.008;14.088;2022-10-16T06:35:52;9.32;;;7.20;;
73264;SDS011;61493;51.008;14.088;2022-10-16T06:38:17;8.75;;;6.00;;
73264;SDS011;61493;51.008;14.088;2022-10-16T06:40:43;8.25;;;6.00;;
73264;SDS011;61493;51.008;14.088;2022-10-16T06:43:08;9.02;;;6.93;;
73264;SDS011;61493;51.008;14.088;2022-10-16T06:45:34;9.18;;;6.75;;
73264;SDS011;61493;51.008;14.088;2022-10-16T06:47:59;10.32;;;6.57;;
73264;SDS011;61493;51.008;14.088;2022-10-16T06:50:24;9.65;;;7.55;;
73264;SDS011;61493;51.008;14.088;2022-10-16T06:52:49;9.35;;;6.22;;
73264;SDS011;61493;51.008;14.088;2022-10-16T06:55:15;8.18;;;6.20;;
73264;SDS011;61493;51.008;14.088;2022-10-16T06:57:41;11.55;;;6.57;;
73264;SDS011;61493;51.008;14.088;2022-10-16T07:00:07;9.32;;;6.28;;
73264;SDS011;61493;51.008;14.088;2022-10-16T07:02:33;7.53;;;6.03;;
73264;SDS011;61493;51.008;14.088;2022-10-16T07:04:58;8.80;;;6.40;;
73264;SDS011;61493;51.008;14.088;2022-10-16T07:07:23;8.57;;;6.03;;
73264;SDS011;61493;51.008;14.088;2022-10-16T07:09:51;10.88;;;6.88;;
73264;SDS011;61493;51.008;14.088;2022-10-16T07:12:18;8.18;;;5.97;;
73264;SDS011;61493;51.008;14.088;2022-10-16T07:14:43;9.73;;;6.43;;
73264;SDS011;61493;51.008;14.088;2022-10-16T07:17:08;9.48;;;6.60;;
73264;SDS011;61493;51.008;14.088;2022-10-16T07:19:33;10.35;;;7.40;;
73264;SDS011;61493;51.008;14.088;2022-10-16T07:21:59;10.18;;;6.97;;
73264;SDS011;61493;51.008;14.088;2022-10-16T07:24:24;8.70;;;6.80;;
73264;SDS011;61493;51.008;14.088;2022-10-16T07:26:50;11.18;;;6.32;;
73264;SDS011;61493;51.008;14.088;2022-10-16T07:29:19;9.95;;;8.25;;
73264;SDS011;61493;51.008;14.088;2022-10-16T07:31:47;7.75;;;6.20;;
73264;SDS011;61493;51.008;14.088;2022-10-16T07:34:22;9.60;;;5.72;;
73264;SDS011;61493;51.008;14.088;2022-10-16T07:36:48;8.00;;;6.40;;
73264;SDS011;61493;51.008;14.088;2022-10-16T07:39:14;10.65;;;7.00;;
73264;SDS011;61493;51.008;14.088;2022-10-16T07:41:40;9.85;;;7.07;;
73264;SDS011;61493;51.008;14.088;2022-10-16T07:44:06;8.63;;;6.50;;
73264;SDS011;61493;51.008;14.088;2022-10-16T07:46:31;9.82;;;7.07;;
73264;SDS011;61493;51.008;14.088;2022-10-16T07:49:00;10.98;;;6.68;;
73264;SDS011;61493;51.008;14.088;2022-10-16T07:51:26;9.57;;;7.05;;
73264;SDS011;61493;51.008;14.088;2022-10-16T07:53:52;9.23;;;6.63;;
73264;SDS011;61493;51.008;14.088;2022-10-16T07:56:18;8.25;;;7.07;;
73264;SDS011;61493;51.008;14.088;2022-10-16T07:58:44;10.68;;;7.32;;
73264;SDS011;61493;51.008;14.088;2022-10-16T08:01:12;11.02;;;7.97;;
73264;SDS011;61493;51.008;14.088;2022-10-16T08:03:46;9.32;;;7.03;;
73264;SDS011;61493;51.008;14.088;2022-10-16T08:06:13;9.68;;;7.90;;
73264;SDS011;61493;51.008;14.088;2022-10-16T08:08:39;9.02;;;7.10;;
73264;SDS011;61493;51.008;14.088;2022-10-16T08:11:04;14.48;;;8.20;;
73264;SDS011;61493;51.008;14.088;2022-10-16T08:13:30;11.95;;;7.07;;
73264;SDS011;61493;51.008;14.088;2022-10-16T08:15:58;10.10;;;7.60;;
73264;SDS011;61493;51.008;14.088;2022-10-16T08:18:24;10.18;;;8.05;;
73264;SDS011;61493;51.008;14.088;2022-10-16T08:20:59;12.65;;;7.97;;
73264;SDS011;61493;51.008;14.088;2022-10-16T08:23:30;12.60;;;7.60;;
73264;SDS011;61493;51.008;14.088;2022-10-16T08:25:56;13.48;;;8.77;;
73264;SDS011;61493;51.008;14.088;2022-10-16T08:28:26;13.82;;;8.18;;
73264;SDS011;61493;51.008;14.088;2022-10-16T08:30:52;12.13;;;8.93;;
73264;SDS011;61493;51.008;14.088;2022-10-16T08:33:20;12.52;;;8.82;;
73264;SDS011;61493;51.008;14.088;2022-10-16T08:35:52;12.88;;;9.93;;
73264;SDS011;61493;51.008;14.088;2022-10-16T08:38:18;12.32;;;8.50;;
73264;SDS011;61493;51.008;14.088;2022-10-16T08:40:44;15.90;;;9.85;;
73264;SDS011;61493;51.008;14.088;2022-10-16T08:48:49;14.73;;;9.82;;
73264;SDS011;61493;51.008;14.088;2022-10-16T08:54:03;10.90;;;8.13;;
73264;SDS011;61493;51.008;14.088;2022-10-16T08:56:30;12.38;;;8.77;;
73264;SDS011;61493;51.008;14.088;2022-10-16T08:58:57;11.15;;;8.15;;
73264;SDS011;61493;51.008;14.088;2022-10-16T09:01:24;11.73;;;7.80;;
73264;SDS011;61493;51.008;14.088;2022-10-16T09:07:09;9.43;;;6.82;;
73264;SDS011;61493;51.008;14.088;2022-10-16T09:10:29;8.25;;;6.35;;
73264;SDS011;61493;51.008;14.088;2022-10-16T09:12:48;7.22;;;5.90;;
73264;SDS011;61493;51.008;14.088;2022-10-16T09:20:49;6.43;;;4.90;;
73264;SDS011;61493;51.008;14.088;2022-10-16T09:23:31;9.40;;;4.63;;
73264;SDS011;61493;51.008;14.088;2022-10-16T09:26:02;5.32;;;4.35;;
73264;SDS011;61493;51.008;14.088;2022-10-16T09:28:30;4.93;;;3.42;;
73264;SDS011;61493;51.008;14.088;2022-10-16T09:30:58;4.40;;;3.80;;
73264;SDS011;61493;51.008;14.088;2022-10-16T09:33:24;6.60;;;3.85;;
73264;SDS011;61493;51.008;14.088;2022-10-16T09:35:54;4.85;;;3.50;;
73264;SDS011;61493;51.008;14.088;2022-10-16T09:38:31;6.75;;;4.43;;
73264;SDS011;61493;51.008;14.088;2022-10-16T09:41:21;6.88;;;3.80;;
73264;SDS011;61493;51.008;14.088;2022-10-16T09:43:54;4.82;;;3.85;;
73264;SDS011;61493;51.008;14.088;2022-10-16T09:46:29;3.88;;;2.63;;
73264;SDS011;61493;51.008;14.088;2022-10-16T09:49:00;6.28;;;3.35;;
73264;SDS011;61493;51.008;14.088;2022-10-16T09:51:28;4.90;;;3.90;;
73264;SDS011;61493;51.008;14.088;2022-10-16T09:54:00;7.10;;;3.75;;
73264;SDS011;61493;51.008;14.088;2022-10-16T09:56:32;5.80;;;3.60;;
73264;SDS011;61493;51.008;14.088;2022-10-16T09:59:01;6.00;;;3.55;;
73264;SDS011;61493;51.008;14.088;2022-10-16T10:04:36;4.47;;;3.40;;
73264;SDS011;61493;51.008;14.088;2022-10-16T10:07:04;5.45;;;3.28;;
73264;SDS011;61493;51.008;14.088;2022-10-16T10:09:33;4.47;;;2.72;;
73264;SDS011;61493;51.008;14.088;2022-10-16T10:15:23;3.67;;;2.90;;
73264;SDS011;61493;51.008;14.088;2022-10-16T10:20:58;3.30;;;2.55;;
73264;SDS011;61493;51.008;14.088;2022-10-16T10:23:26;3.33;;;2.55;;
73264;SDS011;61493;51.008;14.088;2022-10-16T10:28:51;4.45;;;2.97;;
73264;SDS011;61493;51.008;14.088;2022-10-16T10:31:56;5.20;;;2.60;;
73264;SDS011;61493;51.008;14.088;2022-10-16T10:45:27;3.63;;;2.72;;
73264;SDS011;61493;51.008;14.088;2022-10-16T10:55:45;4.70;;;2.60;;
73264;SDS011;61493;51.008;14.088;2022-10-16T11:01:26;2.92;;;2.30;;
73264;SDS011;61493;51.008;14.088;2022-10-16T11:07:09;4.13;;;3.00;;
73264;SDS011;61493;51.008;14.088;2022-10-16T11:10:17;3.42;;;2.20;;
73264;SDS011;61493;51.008;14.088;2022-10-16T11:13:19;3.33;;;2.42;;
73264;SDS011;61493;51.008;14.088;2022-10-16T11:15:52;3.60;;;2.53;;
73264;SDS011;61493;51.008;14.088;2022-10-16T11:18:29;4.00;;;2.47;;
73264;SDS011;61493;51.008;14.088;2022-10-16T11:21:26;3.88;;;3.08;;
73264;SDS011;61493;51.008;14.088;2022-10-16T11:24:09;3.33;;;2.83;;
73264;SDS011;61493;51.008;14.088;2022-10-16T11:26:49;4.70;;;3.28;;
73264;SDS011;61493;51.008;14.088;2022-10-16T11:29:22;3.67;;;3.25;;
73264;SDS011;61493;51.008;14.088;2022-10-16T11:31:59;4.53;;;3.05;;
73264;SDS011;61493;51.008;14.088;2022-10-16T11:34:41;4.60;;;3.30;;
73264;SDS011;61493;51.008;14.088;2022-10-16T11:37:27;5.07;;;3.20;;
73264;SDS011;61493;51.008;14.088;2022-10-16T11:39:58;4.95;;;3.10;;
73264;SDS011;61493;51.008;14.088;2022-10-16T11:42:54;4.45;;;3.03;;
73264;SDS011;61493;51.008;14.088;2022-10-16T11:56:11;9.40;;;2.83;;
73264;SDS011;61493;51.008;14.088;2022-10-16T11:58:51;3.95;;;2.97;;
73264;SDS011;61493;51.008;14.088;2022-10-16T12:01:19;3.63;;;2.80;;
73264;SDS011;61493;51.008;14.088;2022-10-16T12:11:47;4.80;;;3.10;;
73264;SDS011;61493;51.008;14.088;2022-10-16T12:16:38;5.22;;;3.55;;
73264;SDS011;61493;51.008;14.088;2022-10-16T12:19:20;4.13;;;2.80;;
73264;SDS011;61493;51.008;14.088;2022-10-16T12:21:59;4.90;;;3.20;;
73264;SDS011;61493;51.008;14.088;2022-10-16T12:26:55;4.40;;;3.80;;
73264;SDS011;61493;51.008;14.088;2022-10-16T12:29:32;5.50;;;3.83;;
73264;SDS011;61493;51.008;14.088;2022-10-16T12:32:05;3.60;;;3.03;;
73264;SDS011;61493;51.008;14.088;2022-10-16T12:34:47;5.10;;;3.77;;
73264;SDS011;61493;51.008;14.088;2022-10-16T12:37:26;3.85;;;3.22;;
73264;SDS011;61493;51.008;14.088;2022-10-16T12:39:55;7.32;;;4.50;;
73264;SDS011;61493;51.008;14.088;2022-10-16T12:44:50;6.05;;;4.40;;
73264;SDS011;61493;51.008;14.088;2022-10-16T12:47:24;5.80;;;3.88;;
73264;SDS011;61493;51.008;14.088;2022-10-16T12:50:01;6.55;;;4.38;;
73264;SDS011;61493;51.008;14.088;2022-10-16T12:52:35;4.75;;;3.78;;
73264;SDS011;61493;51.008;14.088;2022-10-16T12:55:03;4.70;;;3.80;;
73264;SDS011;61493;51.008;14.088;2022-10-16T13:00:22;5.75;;;3.70;;
73264;SDS011;61493;51.008;14.088;2022-10-16T13:02:57;5.20;;;3.63;;
73264;SDS011;61493;51.008;14.088;2022-10-16T13:22:11;5.00;;;3.63;;
73264;SDS011;61493;51.008;14.088;2022-10-16T13:28:15;4.32;;;3.47;;
73264;SDS011;61493;51.008;14.088;2022-10-16T13:30:39;4.28;;;3.47;;
73264;SDS011;61493;51.008;14.088;2022-10-16T13:33:10;6.65;;;2.75;;
73264;SDS011;61493;51.008;14.088;2022-10-16T13:35:46;4.20;;;2.58;;
73264;SDS011;61493;51.008;14.088;2022-10-16T13:38:16;3.22;;;2.58;;
73264;SDS011;61493;51.008;14.088;2022-10-16T13:46:24;3.63;;;3.17;;
73264;SDS011;61493;51.008;14.088;2022-10-16T13:49:01;4.93;;;3.50;;
73264;SDS011;61493;51.008;14.088;2022-10-16T13:51:29;6.38;;;3.80;;
73264;SDS011;61493;51.008;14.088;2022-10-16T13:53:56;4.22;;;3.67;;
73264;SDS011;61493;51.008;14.088;2022-10-16T13:56:22;7.18;;;3.85;;
73264;SDS011;61493;51.008;14.088;2022-10-16T13:59:02;4.50;;;3.28;;
73264;SDS011;61493;51.008;14.088;2022-10-16T14:01:51;6.93;;;4.05;;
73264;SDS011;61493;51.008;14.088;2022-10-16T14:04:19;5.13;;;3.80;;
73264;SDS011;61493;51.008;14.088;2022-10-16T14:06:45;4.22;;;3.45;;
73264;SDS011;61493;51.008;14.088;2022-10-16T14:09:20;6.18;;;4.57;;
73264;SDS011;61493;51.008;14.088;2022-10-16T14:11:50;7.38;;;4.68;;
73264;SDS011;61493;51.008;14.088;2022-10-16T14:14:18;6.65;;;4.45;;
73264;SDS011;61493;51.008;14.088;2022-10-16T14:16:44;8.43;;;4.22;;
73264;SDS011;61493;51.008;14.088;2022-10-16T14:19:27;5.10;;;3.70;;
73264;SDS011;61493;51.008;14.088;2022-10-16T14:21:53;11.30;;;4.88;;
73264;SDS011;61493;51.008;14.088;2022-10-16T14:24:25;6.65;;;4.40;;
73264;SDS011;61493;51.008;14.088;2022-10-16T14:26:56;5.47;;;3.47;;
73264;SDS011;61493;51.008;14.088;2022-10-16T14:29:23;5.40;;;3.45;;
73264;SDS011;61493;51.008;14.088;2022-10-16T14:32:03;3.90;;;3.22;;
73264;SDS011;61493;51.008;14.088;2022-10-16T14:34:33;4.07;;;3.08;;
73264;SDS011;61493;51.008;14.088;2022-10-16T14:37:09;5.28;;;3.10;;
73264;SDS011;61493;51.008;14.088;2022-10-16T14:39:39;4.35;;;2.95;;
73264;SDS011;61493;51.008;14.088;2022-10-16T14:42:11;8.35;;;3.22;;
73264;SDS011;61493;51.008;14.088;2022-10-16T14:44:41;5.20;;;3.17;;
73264;SDS011;61493;51.008;14.088;2022-10-16T14:47:07;4.68;;;2.83;;
73264;SDS011;61493;51.008;14.088;2022-10-16T14:49:37;3.35;;;2.80;;
73264;SDS011;61493;51.008;14.088;2022-10-16T14:52:04;10.95;;;3.90;;
73264;SDS011;61493;51.008;14.088;2022-10-16T14:54:33;4.28;;;3.00;;
73264;SDS011;61493;51.008;14.088;2022-10-16T14:56:58;5.80;;;2.53;;
73264;SDS011;61493;51.008;14.088;2022-10-16T14:59:33;3.80;;;2.67;;
73264;SDS011;61493;51.008;14.088;2022-10-16T15:02:18;3.25;;;2.33;;
73264;SDS011;61493;51.008;14.088;2022-10-16T15:04:50;4.00;;;2.72;;
73264;SDS011;61493;51.008;14.088;2022-10-16T15:07:15;6.93;;;2.63;;
73264;SDS011;61493;51.008;14.088;2022-10-16T15:09:41;3.63;;;2.20;;
73264;SDS011;61493;51.008;14.088;2022-10-16T15:12:06;5.10;;;2.20;;
73264;SDS011;61493;51.008;14.088;2022-10-16T15:14:31;4.43;;;2.65;;
73264;SDS011;61493;51.008;14.088;2022-10-16T15:16:57;4.05;;;2.30;;
73264;SDS011;61493;51.008;14.088;2022-10-16T15:19:22;5.32;;;2.83;;
73264;SDS011;61493;51.008;14.088;2022-10-16T15:21:47;4.75;;;2.10;;
73264;SDS011;61493;51.008;14.088;2022-10-16T15:24:17;4.53;;;2.40;;
73264;SDS011;61493;51.008;14.088;2022-10-16T15:26:43;3.92;;;2.45;;
73264;SDS011;61493;51.008;14.088;2022-10-16T15:29:08;4.90;;;2.47;;
73264;SDS011;61493;51.008;14.088;2022-10-16T15:31:36;3.33;;;2.35;;
73264;SDS011;61493;51.008;14.088;2022-10-16T15:34:02;3.45;;;2.40;;
73264;SDS011;61493;51.008;14.088;2022-10-16T15:36:30;5.03;;;2.80;;
73264;SDS011;61493;51.008;14.088;2022-10-16T15:38:59;3.85;;;2.70;;
73264;SDS011;61493;51.008;14.088;2022-10-16T15:41:25;3.67;;;2.50;;
73264;SDS011;61493;51.008;14.088;2022-10-16T15:43:51;3.38;;;2.72;;
73264;SDS011;61493;51.008;14.088;2022-10-16T15:46:17;3.30;;;2.67;;
73264;SDS011;61493;51.008;14.088;2022-10-16T15:48:44;4.32;;;2.60;;
73264;SDS011;61493;51.008;14.088;2022-10-16T15:51:11;3.55;;;2.70;;
73264;SDS011;61493;51.008;14.088;2022-10-16T15:53:36;3.53;;;2.67;;
73264;SDS011;61493;51.008;14.088;2022-10-16T15:56:06;10.25;;;3.75;;
73264;SDS011;61493;51.008;14.088;2022-10-16T15:58:33;4.35;;;3.58;;
73264;SDS011;61493;51.008;14.088;2022-10-16T16:00:59;3.78;;;3.00;;
73264;SDS011;61493;51.008;14.088;2022-10-16T16:03:26;5.47;;;3.25;;
73264;SDS011;61493;51.008;14.088;2022-10-16T16:05:52;9.85;;;4.18;;
73264;SDS011;61493;51.008;14.088;2022-10-16T16:08:18;8.52;;;4.50;;
73264;SDS011;61493;51.008;14.088;2022-10-16T16:10:44;8.85;;;5.60;;
73264;SDS011;61493;51.008;14.088;2022-10-16T16:13:09;5.10;;;3.58;;
73264;SDS011;61493;51.008;14.088;2022-10-16T16:15:40;5.90;;;3.50;;
73264;SDS011;61493;51.008;14.088;2022-10-16T16:18:06;4.30;;;3.17;;
73264;SDS011;61493;51.008;14.088;2022-10-16T16:20:31;4.25;;;3.08;;
73264;SDS011;61493;51.008;14.088;2022-10-16T16:22:57;4.85;;;2.47;;
73264;SDS011;61493;51.008;14.088;2022-10-16T16:25:22;5.65;;;2.97;;
73264;SDS011;61493;51.008;14.088;2022-10-16T16:27:48;3.50;;;2.67;;
73264;SDS011;61493;51.008;14.088;2022-10-16T16:30:13;4.22;;;3.08;;
73264;SDS011;61493;51.008;14.088;2022-10-16T16:32:39;4.18;;;2.65;;
73264;SDS011;61493;51.008;14.088;2022-10-16T16:35:04;4.63;;;3.05;;
73264;SDS011;61493;51.008;14.088;2022-10-16T16:37:30;4.05;;;2.80;;
73264;SDS011;61493;51.008;14.088;2022-10-16T16:39:55;3.97;;;3.20;;